sensor_id;sensor_type;location;lat;lon;timestamp;pressure;altitude;pressure_sealevel;temperature;humidity
25430;BME280;13360;48.152;-1.788;2023-02-21T00:00:01;102701.28;;;8.17;100.00
25430;BME280;13360;48.152;-1.788;2023-02-21T00:02:45;102672.81;;;8.23;100.00
25430;BME280;13360;48.152;-1.788;2023-02-21T00:05:29;102659.78;;;8.30;100.00
25430;BME280;13360;48.152;-1.788;2023-02-21T00:08:13;102645.78;;;8.32;100.00
25430;BME280;13360;48.152;-1.788;2023-02-21T00:10:56;102624.53;;;8.39;100.00
25430;BME280;13360;48.152;-1.788;2023-02-21T00:13:40;102604.91;;;8.35;100.00
25430;BME280;13360;48.152;-1.788;2023-02-21T00:16:24;102589.09;;;8.42;100.00
25430;BME280;13360;48.152;-1.788;2023-02-21T00:19:08;102568.16;;;8.41;100.00
25430;BME280;13360;48.152;-1.788;2023-02-21T00:21:53;102554.84;;;8.38;100.00
25430;BME280;13360;48.152;-1.788;2023-02-21T00:24:37;102548.03;;;8.41;100.00
25430;BME280;13360;48.152;-1.788;2023-02-21T00:27:23;102519.31;;;8.37;100.00
25430;BME280;13360;48.152;-1.788;2023-02-21T00:30:08;102517.97;;;8.39;100.00
25430;BME280;13360;48.152;-1.788;2023-02-21T00:32:52;102516.31;;;8.38;100.00
25430;BME280;13360;48.152;-1.788;2023-02-21T00:35:36;102490.94;;;8.36;100.00
25430;BME280;13360;48.152;-1.788;2023-02-21T00:38:19;102482.66;;;8.36;100.00
25430;BME280;13360;48.152;-1.788;2023-02-21T00:41:03;102469.34;;;8.33;100.00
25430;BME280;13360;48.152;-1.788;2023-02-21T00:43:47;102453.75;;;8.27;100.00
25430;BME280;13360;48.152;-1.788;2023-02-21T00:46:31;102438.56;;;8.24;100.00
25430;BME280;13360;48.152;-1.788;2023-02-21T00:49:15;102436.31;;;8.21;100.00
25430;BME280;13360;48.152;-1.788;2023-02-21T00:51:59;102416.19;;;8.21;100.00
25430;BME280;13360;48.152;-1.788;2023-02-21T00:54:43;102395.16;;;8.15;100.00
25430;BME280;13360;48.152;-1.788;2023-02-21T00:57:27;102391.81;;;8.13;100.00
25430;BME280;13360;48.152;-1.788;2023-02-21T01:00:21;102371.06;;;8.10;100.00
25430;BME280;13360;48.152;-1.788;2023-02-21T01:03:06;102360.31;;;8.09;100.00
25430;BME280;13360;48.152;-1.788;2023-02-21T01:05:51;102352.88;;;8.09;100.00
25430;BME280;13360;48.152;-1.788;2023-02-21T01:08:35;102354.22;;;8.07;100.00
25430;BME280;13360;48.152;-1.788;2023-02-21T01:11:21;102346.19;;;8.05;100.00
25430;BME280;13360;48.152;-1.788;2023-02-21T01:14:06;102331.84;;;8.03;100.00
25430;BME280;13360;48.152;-1.788;2023-02-21T01:16:50;102322.50;;;8.04;100.00
25430;BME280;13360;48.152;-1.788;2023-02-21T01:19:34;102306.00;;;8.04;100.00
25430;BME280;13360;48.152;-1.788;2023-02-21T01:22:19;102300.38;;;7.99;100.00
25430;BME280;13360;48.152;-1.788;2023-02-21T01:25:03;102299.56;;;7.99;100.00
25430;BME280;13360;48.152;-1.788;2023-02-21T01:27:47;102285.94;;;7.92;100.00
25430;BME280;13360;48.152;-1.788;2023-02-21T01:30:31;102277.88;;;7.90;100.00
25430;BME280;13360;48.152;-1.788;2023-02-21T01:33:15;102283.38;;;7.90;100.00
25430;BME280;13360;48.152;-1.788;2023-02-21T01:35:59;102272.16;;;7.92;100.00
25430;BME280;13360;48.152;-1.788;2023-02-21T01:38:42;102268.34;;;7.93;100.00
25430;BME280;13360;48.152;-1.788;2023-02-21T01:41:26;102257.56;;;7.91;100.00
25430;BME280;13360;48.152;-1.788;2023-02-21T01:47:16;102249.53;;;7.90;100.00
25430;BME280;13360;48.152;-1.788;2023-02-21T01:50:19;102243.44;;;7.88;100.00
25430;BME280;13360;48.152;-1.788;2023-02-21T01:53:10;102228.50;;;7.84;100.00
25430;BME280;13360;48.152;-1.788;2023-02-21T01:55:56;102226.00;;;7.82;100.00
25430;BME280;13360;48.152;-1.788;2023-02-21T01:58:42;102214.66;;;7.79;100.00
25430;BME280;13360;48.152;-1.788;2023-02-21T02:01:34;102207.63;;;7.71;100.00
25430;BME280;13360;48.152;-1.788;2023-02-21T02:04:20;102206.66;;;7.65;100.00
25430;BME280;13360;48.152;-1.788;2023-02-21T02:07:03;102199.59;;;7.70;100.00
25430;BME280;13360;48.152;-1.788;2023-02-21T02:09:47;102186.44;;;7.72;100.00
25430;BME280;13360;48.152;-1.788;2023-02-21T02:34:50;102060.63;;;7.50;100.00
25430;BME280;13360;48.152;-1.788;2023-02-21T02:43:05;102041.16;;;7.40;100.00
25430;BME280;13360;48.152;-1.788;2023-02-21T02:45:42;102027.66;;;7.39;100.00
25430;BME280;13360;48.152;-1.788;2023-02-21T02:48:22;102020.47;;;7.38;100.00
25430;BME280;13360;48.152;-1.788;2023-02-21T02:50:50;102008.06;;;7.35;100.00
25430;BME280;13360;48.152;-1.788;2023-02-21T02:53:25;102000.19;;;7.27;100.00
25430;BME280;13360;48.152;-1.788;2023-02-21T02:58:21;102011.91;;;7.22;100.00
25430;BME280;13360;48.152;-1.788;2023-02-21T03:06:58;101983.16;;;7.13;100.00
25430;BME280;13360;48.152;-1.788;2023-02-21T03:17:33;101947.09;;;7.10;100.00
25430;BME280;13360;48.152;-1.788;2023-02-21T03:20:02;101954.03;;;7.00;100.00
25430;BME280;13360;48.152;-1.788;2023-02-21T03:22:29;101947.72;;;7.00;100.00
25430;BME280;13360;48.152;-1.788;2023-02-21T03:24:57;101949.97;;;7.03;100.00
25430;BME280;13360;48.152;-1.788;2023-02-21T03:27:24;101950.47;;;7.00;100.00
25430;BME280;13360;48.152;-1.788;2023-02-21T03:29:52;101938.88;;;6.98;100.00
25430;BME280;13360;48.152;-1.788;2023-02-21T03:32:24;101930.91;;;6.96;100.00
25430;BME280;13360;48.152;-1.788;2023-02-21T03:34:50;101927.91;;;6.98;100.00
25430;BME280;13360;48.152;-1.788;2023-02-21T03:37:32;101925.88;;;6.93;100.00
25430;BME280;13360;48.152;-1.788;2023-02-21T03:39:59;101915.97;;;6.92;100.00
25430;BME280;13360;48.152;-1.788;2023-02-21T03:42:25;101913.22;;;6.92;100.00
25430;BME280;13360;48.152;-1.788;2023-02-21T03:44:50;101906.41;;;6.95;100.00
25430;BME280;13360;48.152;-1.788;2023-02-21T03:47:15;101906.06;;;6.91;100.00
25430;BME280;13360;48.152;-1.788;2023-02-21T03:49:41;101903.31;;;6.91;100.00
25430;BME280;13360;48.152;-1.788;2023-02-21T03:52:06;101897.50;;;6.88;100.00
25430;BME280;13360;48.152;-1.788;2023-02-21T03:54:33;101893.66;;;6.89;100.00
25430;BME280;13360;48.152;-1.788;2023-02-21T03:56:59;101883.50;;;6.89;100.00
25430;BME280;13360;48.152;-1.788;2023-02-21T03:59:24;101877.44;;;6.87;100.00
25430;BME280;13360;48.152;-1.788;2023-02-21T04:01:49;101878.25;;;6.88;100.00
25430;BME280;13360;48.152;-1.788;2023-02-21T04:04:15;101878.25;;;6.88;100.00
25430;BME280;13360;48.152;-1.788;2023-02-21T04:06:40;101875.72;;;6.86;100.00
25430;BME280;13360;48.152;-1.788;2023-02-21T04:09:05;101866.44;;;6.87;100.00
25430;BME280;13360;48.152;-1.788;2023-02-21T04:11:31;101855.09;;;6.84;100.00
25430;BME280;13360;48.152;-1.788;2023-02-21T04:13:56;101849.75;;;6.77;100.00
25430;BME280;13360;48.152;-1.788;2023-02-21T04:16:21;101849.16;;;6.75;100.00
25430;BME280;13360;48.152;-1.788;2023-02-21T04:18:47;101846.41;;;6.75;100.00
25430;BME280;13360;48.152;-1.788;2023-02-21T04:21:16;101846.66;;;6.73;100.00
25430;BME280;13360;48.152;-1.788;2023-02-21T04:23:42;101837.34;;;6.75;100.00
25430;BME280;13360;48.152;-1.788;2023-02-21T04:26:07;101840.09;;;6.75;100.00
25430;BME280;13360;48.152;-1.788;2023-02-21T04:28:32;101862.16;;;6.80;100.00
25430;BME280;13360;48.152;-1.788;2023-02-21T04:30:58;101861.66;;;6.83;100.00
25430;BME280;13360;48.152;-1.788;2023-02-21T04:33:23;101864.16;;;6.84;100.00
25430;BME280;13360;48.152;-1.788;2023-02-21T04:35:48;101842.34;;;6.78;100.00
25430;BME280;13360;48.152;-1.788;2023-02-21T04:38:15;101858.00;;;6.77;100.00
25430;BME280;13360;48.152;-1.788;2023-02-21T04:40:40;101856.31;;;6.76;100.00
25430;BME280;13360;48.152;-1.788;2023-02-21T04:43:06;101858.25;;;6.76;100.00
25430;BME280;13360;48.152;-1.788;2023-02-21T04:45:31;101851.81;;;6.70;100.00
25430;BME280;13360;48.152;-1.788;2023-02-21T04:47:56;101858.84;;;6.66;100.00
25430;BME280;13360;48.152;-1.788;2023-02-21T04:50:22;101863.50;;;6.65;100.00
25430;BME280;13360;48.152;-1.788;2023-02-21T04:52:47;101863.50;;;6.65;100.00
25430;BME280;13360;48.152;-1.788;2023-02-21T04:55:14;101871.53;;;6.67;100.00
25430;BME280;13360;48.152;-1.788;2023-02-21T04:57:39;101862.34;;;6.61;100.00
25430;BME280;13360;48.152;-1.788;2023-02-21T05:00:05;101855.66;;;6.57;100.00
25430;BME280;13360;48.152;-1.788;2023-02-21T05:02:32;101867.00;;;6.61;100.00
25430;BME280;13360;48.152;-1.788;2023-02-21T05:04:58;101873.66;;;6.65;100.00
25430;BME280;13360;48.152;-1.788;2023-02-21T05:07:23;101882.50;;;6.67;100.00
25430;BME280;13360;48.152;-1.788;2023-02-21T05:09:48;101864.97;;;6.56;100.00
25430;BME280;13360;48.152;-1.788;2023-02-21T05:12:14;101882.03;;;6.58;100.00
25430;BME280;13360;48.152;-1.788;2023-02-21T05:14:40;101873.94;;;6.52;100.00
25430;BME280;13360;48.152;-1.788;2023-02-21T05:17:06;101893.84;;;6.59;100.00
25430;BME280;13360;48.152;-1.788;2023-02-21T05:19:32;101896.94;;;6.62;100.00
25430;BME280;13360;48.152;-1.788;2023-02-21T05:21:59;101882.63;;;6.60;100.00
25430;BME280;13360;48.152;-1.788;2023-02-21T05:24:26;101874.28;;;6.55;100.00
25430;BME280;13360;48.152;-1.788;2023-02-21T05:26:51;101870.47;;;6.56;100.00
25430;BME280;13360;48.152;-1.788;2023-02-21T05:29:17;101873.59;;;6.48;100.00
25430;BME280;13360;48.152;-1.788;2023-02-21T05:31:43;101886.09;;;6.56;100.00
25430;BME280;13360;48.152;-1.788;2023-02-21T05:34:09;101883.25;;;6.51;100.00
25430;BME280;13360;48.152;-1.788;2023-02-21T05:36:34;101888.50;;;6.52;100.00
25430;BME280;13360;48.152;-1.788;2023-02-21T05:39:00;101890.16;;;6.53;100.00
25430;BME280;13360;48.152;-1.788;2023-02-21T05:41:25;101898.16;;;6.55;100.00
25430;BME280;13360;48.152;-1.788;2023-02-21T05:43:50;101899.84;;;6.56;100.00
25430;BME280;13360;48.152;-1.788;2023-02-21T05:46:21;101885.75;;;6.52;100.00
25430;BME280;13360;48.152;-1.788;2023-02-21T05:48:47;101886.75;;;6.46;100.00
25430;BME280;13360;48.152;-1.788;2023-02-21T05:51:13;101892.94;;;6.41;100.00
25430;BME280;13360;48.152;-1.788;2023-02-21T05:53:38;101914.03;;;6.41;100.00
25430;BME280;13360;48.152;-1.788;2023-02-21T05:56:04;101905.22;;;6.39;100.00
25430;BME280;13360;48.152;-1.788;2023-02-21T05:58:29;101905.22;;;6.39;100.00
25430;BME280;13360;48.152;-1.788;2023-02-21T06:00:55;101906.78;;;6.35;100.00
25430;BME280;13360;48.152;-1.788;2023-02-21T06:03:20;101905.59;;;6.31;100.00
25430;BME280;13360;48.152;-1.788;2023-02-21T06:05:45;101903.69;;;6.31;100.00
25430;BME280;13360;48.152;-1.788;2023-02-21T06:08:11;101911.19;;;6.36;100.00
25430;BME280;13360;48.152;-1.788;2023-02-21T06:10:36;101910.13;;;6.37;100.00
25430;BME280;13360;48.152;-1.788;2023-02-21T06:13:01;101915.00;;;6.35;100.00
25430;BME280;13360;48.152;-1.788;2023-02-21T06:15:27;101917.75;;;6.35;100.00
25430;BME280;13360;48.152;-1.788;2023-02-21T06:17:52;101924.31;;;6.34;100.00
25430;BME280;13360;48.152;-1.788;2023-02-21T06:20:17;101927.66;;;6.36;100.00
25430;BME280;13360;48.152;-1.788;2023-02-21T06:22:43;101926.00;;;6.35;100.00
25430;BME280;13360;48.152;-1.788;2023-02-21T06:25:08;101906.56;;;6.25;100.00
25430;BME280;13360;48.152;-1.788;2023-02-21T06:27:34;101913.72;;;6.26;100.00
25430;BME280;13360;48.152;-1.788;2023-02-21T06:30:01;101919.22;;;6.26;100.00
25430;BME280;13360;48.152;-1.788;2023-02-21T06:32:26;101897.13;;;6.21;100.00
25430;BME280;13360;48.152;-1.788;2023-02-21T06:34:52;101904.75;;;6.19;100.00
25430;BME280;13360;48.152;-1.788;2023-02-21T06:37:18;101894.75;;;6.13;100.00
25430;BME280;13360;48.152;-1.788;2023-02-21T06:39:43;101897.97;;;6.09;100.00
25430;BME280;13360;48.152;-1.788;2023-02-21T06:42:13;101905.72;;;6.13;100.00
25430;BME280;13360;48.152;-1.788;2023-02-21T06:44:39;101906.81;;;6.11;100.00
25430;BME280;13360;48.152;-1.788;2023-02-21T06:47:04;101896.66;;;6.12;100.00
25430;BME280;13360;48.152;-1.788;2023-02-21T06:49:29;101893.09;;;6.11;100.00
25430;BME280;13360;48.152;-1.788;2023-02-21T06:51:55;101898.31;;;6.13;100.00
25430;BME280;13360;48.152;-1.788;2023-02-21T06:54:20;101897.25;;;6.14;100.00
25430;BME280;13360;48.152;-1.788;2023-02-21T06:56:46;101889.84;;;6.15;100.00
25430;BME280;13360;48.152;-1.788;2023-02-21T06:59:11;101886.88;;;6.16;100.00
25430;BME280;13360;48.152;-1.788;2023-02-21T07:01:36;101876.16;;;6.15;100.00
25430;BME280;13360;48.152;-1.788;2023-02-21T07:04:02;101875.06;;;6.16;100.00
25430;BME280;13360;48.152;-1.788;2023-02-21T07:06:27;101873.41;;;6.15;100.00
25430;BME280;13360;48.152;-1.788;2023-02-21T07:08:53;101867.91;;;6.15;100.00
25430;BME280;13360;48.152;-1.788;2023-02-21T07:11:19;101854.78;;;6.17;100.00
25430;BME280;13360;48.152;-1.788;2023-02-21T07:13:51;101852.88;;;6.17;100.00
25430;BME280;13360;48.152;-1.788;2023-02-21T07:16:17;101844.31;;;6.14;100.00
25430;BME280;13360;48.152;-1.788;2023-02-21T07:18:44;101852.28;;;6.15;100.00
25430;BME280;13360;48.152;-1.788;2023-02-21T07:21:10;101858.59;;;6.16;100.00
25430;BME280;13360;48.152;-1.788;2023-02-21T07:23:35;101856.94;;;6.15;100.00
25430;BME280;13360;48.152;-1.788;2023-02-21T07:26:01;101836.66;;;6.16;100.00
25430;BME280;13360;48.152;-1.788;2023-02-21T07:28:26;101842.72;;;6.18;100.00
25430;BME280;13360;48.152;-1.788;2023-02-21T07:30:52;101852.16;;;6.22;100.00
25430;BME280;13360;48.152;-1.788;2023-02-21T07:33:17;101848.09;;;6.24;100.00
25430;BME280;13360;48.152;-1.788;2023-02-21T07:35:42;101850.25;;;6.22;100.00
25430;BME280;13360;48.152;-1.788;2023-02-21T07:38:08;101856.31;;;6.24;100.00
25430;BME280;13360;48.152;-1.788;2023-02-21T07:40:33;101860.13;;;6.23;100.00
25430;BME280;13360;48.152;-1.788;2023-02-21T07:42:58;101861.69;;;6.19;100.00
25430;BME280;13360;48.152;-1.788;2023-02-21T07:45:24;101878.50;;;6.23;100.00
25430;BME280;13360;48.152;-1.788;2023-02-21T07:47:49;101889.88;;;6.26;100.00
25430;BME280;13360;48.152;-1.788;2023-02-21T07:50:16;101889.38;;;6.29;100.00
25430;BME280;13360;48.152;-1.788;2023-02-21T07:52:41;101892.72;;;6.31;100.00
25430;BME280;13360;48.152;-1.788;2023-02-21T07:55:07;101896.63;;;6.35;100.00
25430;BME280;13360;48.152;-1.788;2023-02-21T07:57:32;101903.31;;;6.39;100.00
25430;BME280;13360;48.152;-1.788;2023-02-21T07:59:57;101894.84;;;6.41;100.00
25430;BME280;13360;48.152;-1.788;2023-02-21T08:02:23;101905.13;;;6.46;100.00
25430;BME280;13360;48.152;-1.788;2023-02-21T08:04:51;101907.88;;;6.46;100.00
25430;BME280;13360;48.152;-1.788;2023-02-21T08:07:17;101900.66;;;6.45;100.00
25430;BME280;13360;48.152;-1.788;2023-02-21T08:09:43;101905.69;;;6.48;100.00
25430;BME280;13360;48.152;-1.788;2023-02-21T08:12:08;101902.72;;;6.49;100.00
25430;BME280;13360;48.152;-1.788;2023-02-21T08:14:33;101899.97;;;6.49;100.00
25430;BME280;13360;48.152;-1.788;2023-02-21T08:16:59;101911.06;;;6.54;100.00
25430;BME280;13360;48.152;-1.788;2023-02-21T08:19:24;101900.91;;;6.55;100.00
25430;BME280;13360;48.152;-1.788;2023-02-21T08:21:50;101916.88;;;6.58;100.00
25430;BME280;13360;48.152;-1.788;2023-02-21T08:24:17;101927.72;;;6.64;100.00
25430;BME280;13360;48.152;-1.788;2023-02-21T08:26:43;101928.94;;;6.68;100.00
25430;BME280;13360;48.152;-1.788;2023-02-21T08:29:10;101931.19;;;6.71;100.00
25430;BME280;13360;48.152;-1.788;2023-02-21T08:31:37;101933.22;;;6.76;100.00
25430;BME280;13360;48.152;-1.788;2023-02-21T08:34:03;101940.72;;;6.81;100.00
25430;BME280;13360;48.152;-1.788;2023-02-21T08:36:30;101942.28;;;6.88;100.00
25430;BME280;13360;48.152;-1.788;2023-02-21T08:38:56;101930.56;;;6.93;100.00
25430;BME280;13360;48.152;-1.788;2023-02-21T08:41:21;101942.22;;;7.00;100.00
25430;BME280;13360;48.152;-1.788;2023-02-21T08:43:47;101949.97;;;7.03;100.00
25430;BME280;13360;48.152;-1.788;2023-02-21T08:46:14;101954.38;;;7.04;100.00
25430;BME280;13360;48.152;-1.788;2023-02-21T08:48:39;101959.38;;;7.07;100.00
25430;BME280;13360;48.152;-1.788;2023-02-21T08:51:04;101959.59;;;7.17;100.00
25430;BME280;13360;48.152;-1.788;2023-02-21T08:53:30;101967.44;;;7.25;100.00
25430;BME280;13360;48.152;-1.788;2023-02-21T08:55:55;101967.09;;;7.33;100.00
25430;BME280;13360;48.152;-1.788;2023-02-21T08:58:20;101977.66;;;7.42;100.00
25430;BME280;13360;48.152;-1.788;2023-02-21T09:00:46;101998.69;;;7.48;100.00
25430;BME280;13360;48.152;-1.788;2023-02-21T09:03:11;101997.72;;;7.54;100.00
25430;BME280;13360;48.152;-1.788;2023-02-21T09:05:37;101995.63;;;7.61;100.00
25430;BME280;13360;48.152;-1.788;2023-02-21T09:08:03;102002.22;;;7.60;100.00
25430;BME280;13360;48.152;-1.788;2023-02-21T09:10:30;102006.84;;;7.71;100.00
25430;BME280;13360;48.152;-1.788;2023-02-21T09:13:00;102014.44;;;7.81;100.00
25430;BME280;13360;48.152;-1.788;2023-02-21T09:15:26;102015.34;;;7.86;100.00
25430;BME280;13360;48.152;-1.788;2023-02-21T09:17:52;102025.38;;;7.92;100.00
25430;BME280;13360;48.152;-1.788;2023-02-21T09:20:22;102033.28;;;7.89;100.00
25430;BME280;13360;48.152;-1.788;2023-02-21T09:22:48;102040.22;;;7.91;100.00
25430;BME280;13360;48.152;-1.788;2023-02-21T09:25:15;102050.91;;;8.05;100.00
25430;BME280;13360;48.152;-1.788;2023-02-21T09:27:41;102050.81;;;8.00;100.00
25430;BME280;13360;48.152;-1.788;2023-02-21T09:30:16;102059.81;;;8.12;100.00
25430;BME280;13360;48.152;-1.788;2023-02-21T09:32:42;102082.53;;;8.19;100.00
25430;BME280;13360;48.152;-1.788;2023-02-21T09:35:09;102093.81;;;8.17;100.00
25430;BME280;13360;48.152;-1.788;2023-02-21T09:37:41;102110.41;;;8.22;100.00
25430;BME280;13360;48.152;-1.788;2023-02-21T09:42:44;102145.69;;;8.54;100.00
25430;BME280;13360;48.152;-1.788;2023-02-21T09:45:15;102155.03;;;8.70;100.00
25430;BME280;13360;48.152;-1.788;2023-02-21T09:47:42;102162.41;;;8.81;100.00
25430;BME280;13360;48.152;-1.788;2023-02-21T09:50:13;102162.22;;;8.88;100.00
25430;BME280;13360;48.152;-1.788;2023-02-21T09:52:40;102161.97;;;8.89;100.00
25430;BME280;13360;48.152;-1.788;2023-02-21T09:55:28;102179.50;;;9.00;100.00
25430;BME280;13360;48.152;-1.788;2023-02-21T09:57:55;102185.75;;;9.12;100.00
25430;BME280;13360;48.152;-1.788;2023-02-21T10:00:23;102187.09;;;9.26;100.00
25430;BME280;13360;48.152;-1.788;2023-02-21T10:09:04;102214.25;;;9.56;100.00
25430;BME280;13360;48.152;-1.788;2023-02-21T10:11:40;102222.75;;;9.71;100.00
25430;BME280;13360;48.152;-1.788;2023-02-21T10:16:55;102272.88;;;10.02;100.00
25430;BME280;13360;48.152;-1.788;2023-02-21T10:19:30;102293.97;;;10.13;100.00
25430;BME280;13360;48.152;-1.788;2023-02-21T10:21:57;102292.56;;;10.11;100.00
25430;BME280;13360;48.152;-1.788;2023-02-21T10:24:26;102298.34;;;10.09;100.00
25430;BME280;13360;48.152;-1.788;2023-02-21T10:26:58;102297.47;;;10.03;100.00
25430;BME280;13360;48.152;-1.788;2023-02-21T10:29:34;102323.66;;;10.01;100.00
25430;BME280;13360;48.152;-1.788;2023-02-21T10:32:02;102347.16;;;10.03;100.00
25430;BME280;13360;48.152;-1.788;2023-02-21T10:34:29;102353.50;;;10.04;100.00
25430;BME280;13360;48.152;-1.788;2023-02-21T10:37:02;102359.59;;;10.06;100.00
25430;BME280;13360;48.152;-1.788;2023-02-21T10:39:39;102358.25;;;10.08;100.00
25430;BME280;13360;48.152;-1.788;2023-02-21T10:42:13;102353.25;;;10.05;100.00
25430;BME280;13360;48.152;-1.788;2023-02-21T10:44:42;102356.78;;;10.01;100.00
25430;BME280;13360;48.152;-1.788;2023-02-21T10:47:22;102366.72;;;10.02;100.00
25430;BME280;13360;48.152;-1.788;2023-02-21T10:50:08;102372.00;;;10.03;100.00
25430;BME280;13360;48.152;-1.788;2023-02-21T10:52:45;102375.09;;;10.07;100.00
25430;BME280;13360;48.152;-1.788;2023-02-21T10:55:21;102359.88;;;10.04;100.00
25430;BME280;13360;48.152;-1.788;2023-02-21T10:57:53;102380.66;;;10.12;100.00
25430;BME280;13360;48.152;-1.788;2023-02-21T11:00:25;102385.75;;;10.20;100.00
25430;BME280;13360;48.152;-1.788;2023-02-21T11:02:56;102380.59;;;10.24;100.00
25430;BME280;13360;48.152;-1.788;2023-02-21T11:05:27;102381.25;;;10.31;100.00
25430;BME280;13360;48.152;-1.788;2023-02-21T11:08:02;102397.38;;;10.39;100.00
25430;BME280;13360;48.152;-1.788;2023-02-21T11:10:33;102409.34;;;10.45;100.00
25430;BME280;13360;48.152;-1.788;2023-02-21T11:15:36;102408.44;;;10.61;100.00
25430;BME280;13360;48.152;-1.788;2023-02-21T11:20:37;102429.13;;;10.80;100.00
25430;BME280;13360;48.152;-1.788;2023-02-21T11:23:02;102435.59;;;10.86;100.00
25430;BME280;13360;48.152;-1.788;2023-02-21T11:25:37;102435.59;;;10.86;100.00
25430;BME280;13360;48.152;-1.788;2023-02-21T11:30:43;102426.34;;;11.02;100.00
25430;BME280;13360;48.152;-1.788;2023-02-21T11:33:10;102406.78;;;11.04;100.00
25430;BME280;13360;48.152;-1.788;2023-02-21T11:35:43;102378.25;;;11.03;100.00
25430;BME280;13360;48.152;-1.788;2023-02-21T11:38:37;102347.34;;;11.06;100.00
25430;BME280;13360;48.152;-1.788;2023-02-21T11:41:16;102315.25;;;11.05;100.00
25430;BME280;13360;48.152;-1.788;2023-02-21T11:43:49;102316.13;;;11.11;100.00
25430;BME280;13360;48.152;-1.788;2023-02-21T11:54:12;102250.91;;;11.15;100.00
25430;BME280;13360;48.152;-1.788;2023-02-21T11:59:27;102235.00;;;11.00;100.00
25430;BME280;13360;48.152;-1.788;2023-02-21T12:07:43;102297.41;;;11.23;100.00
25430;BME280;13360;48.152;-1.788;2023-02-21T12:15:58;102224.94;;;11.21;100.00
25430;BME280;13360;48.152;-1.788;2023-02-21T12:23:58;102221.16;;;11.32;100.00
25430;BME280;13360;48.152;-1.788;2023-02-21T12:31:49;102205.16;;;11.39;100.00
25430;BME280;13360;48.152;-1.788;2023-02-21T12:34:23;102208.53;;;11.46;100.00
25430;BME280;13360;48.152;-1.788;2023-02-21T12:43:15;102197.22;;;11.53;100.00
25430;BME280;13360;48.152;-1.788;2023-02-21T12:48:50;102192.56;;;11.58;100.00
25430;BME280;13360;48.152;-1.788;2023-02-21T12:51:21;102170.69;;;11.62;100.00
25430;BME280;13360;48.152;-1.788;2023-02-21T12:54:06;102178.16;;;11.61;100.00
25430;BME280;13360;48.152;-1.788;2023-02-21T12:59:53;102202.03;;;11.73;100.00
25430;BME280;13360;48.152;-1.788;2023-02-21T13:05:38;102163.56;;;11.71;100.00
25430;BME280;13360;48.152;-1.788;2023-02-21T13:08:26;102148.91;;;11.76;100.00
25430;BME280;13360;48.152;-1.788;2023-02-21T13:13:40;102152.84;;;11.85;100.00
25430;BME280;13360;48.152;-1.788;2023-02-21T13:16:08;102172.84;;;11.97;100.00
25430;BME280;13360;48.152;-1.788;2023-02-21T13:18:41;102170.69;;;12.09;100.00
25430;BME280;13360;48.152;-1.788;2023-02-21T13:29:42;102149.09;;;12.27;100.00
25430;BME280;13360;48.152;-1.788;2023-02-21T13:32:13;102141.38;;;12.29;100.00
25430;BME280;13360;48.152;-1.788;2023-02-21T13:34:43;102135.50;;;12.25;100.00
25430;BME280;13360;48.152;-1.788;2023-02-21T13:37:18;102130.78;;;12.15;100.00
25430;BME280;13360;48.152;-1.788;2023-02-21T13:39:50;102125.53;;;12.14;100.00
25430;BME280;13360;48.152;-1.788;2023-02-21T13:42:19;102130.78;;;12.15;100.00
25430;BME280;13360;48.152;-1.788;2023-02-21T13:44:50;102150.19;;;12.20;100.00
25430;BME280;13360;48.152;-1.788;2023-02-21T13:47:22;102194.78;;;12.24;100.00
25430;BME280;13360;48.152;-1.788;2023-02-21T14:08:13;102202.53;;;12.22;100.00
25430;BME280;13360;48.152;-1.788;2023-02-21T14:10:54;102218.63;;;12.20;100.00
25430;BME280;13360;48.152;-1.788;2023-02-21T14:13:32;102238.28;;;12.18;100.00
25430;BME280;13360;48.152;-1.788;2023-02-21T14:26:44;102278.19;;;12.23;100.00
25430;BME280;13360;48.152;-1.788;2023-02-21T14:31:52;102273.44;;;12.18;100.00
25430;BME280;13360;48.152;-1.788;2023-02-21T14:34:23;102273.44;;;12.18;100.00
25430;BME280;13360;48.152;-1.788;2023-02-21T14:36:51;102267.09;;;12.17;100.00
25430;BME280;13360;48.152;-1.788;2023-02-21T14:39:18;102254.34;;;12.16;100.00
25430;BME280;13360;48.152;-1.788;2023-02-21T14:42:08;102236.88;;;12.11;100.00
25430;BME280;13360;48.152;-1.788;2023-02-21T14:44:59;102234.38;;;12.14;100.00
25430;BME280;13360;48.152;-1.788;2023-02-21T14:50:06;102237.75;;;12.27;100.00
25430;BME280;13360;48.152;-1.788;2023-02-21T14:55:25;102286.50;;;12.28;100.00
25430;BME280;13360;48.152;-1.788;2023-02-21T15:03:28;102447.25;;;12.33;100.00
25430;BME280;13360;48.152;-1.788;2023-02-21T15:06:01;102528.22;;;12.40;100.00
25430;BME280;13360;48.152;-1.788;2023-02-21T15:08:27;102538.16;;;12.36;100.00
25430;BME280;13360;48.152;-1.788;2023-02-21T15:10:59;102569.22;;;12.38;100.00
25430;BME280;13360;48.152;-1.788;2023-02-21T15:13:28;102573.66;;;12.39;100.00
25430;BME280;13360;48.152;-1.788;2023-02-21T15:15:56;102586.38;;;12.35;100.00
25430;BME280;13360;48.152;-1.788;2023-02-21T15:18:28;102581.41;;;12.37;100.00
25430;BME280;13360;48.152;-1.788;2023-02-21T15:23:35;102547.53;;;12.30;100.00
25430;BME280;13360;48.152;-1.788;2023-02-21T15:28:40;102545.34;;;12.32;100.00
25430;BME280;13360;48.152;-1.788;2023-02-21T15:31:08;102540.63;;;12.32;100.00
25430;BME280;13360;48.152;-1.788;2023-02-21T15:33:36;102545.28;;;12.27;100.00
25430;BME280;13360;48.152;-1.788;2023-02-21T15:36:17;102558.94;;;12.33;100.00
25430;BME280;13360;48.152;-1.788;2023-02-21T15:38:50;102564.19;;;12.35;100.00
25430;BME280;13360;48.152;-1.788;2023-02-21T15:44:41;102601.38;;;12.39;100.00
25430;BME280;13360;48.152;-1.788;2023-02-21T15:47:10;102608.56;;;12.40;100.00
25430;BME280;13360;48.152;-1.788;2023-02-21T15:49:41;102610.25;;;12.41;100.00
25430;BME280;13360;48.152;-1.788;2023-02-21T15:52:34;102612.75;;;12.42;100.00
25430;BME280;13360;48.152;-1.788;2023-02-21T16:09:17;102628.59;;;12.47;100.00